Time;durP1;ratioP1;P1;durP2;ratioP2;P2;SDS_P1;SDS_P2;PMS_P1;PMS_P2;Temp;Humidity;BMP_temperature;BMP_pressure;BME280_temperature;BME280_humidity;BME280_pressure;Samples;Min_cycle;Max_cycle;Signal;HPM_P1;HPM_P2
2022/08/17 00:01:06;;;;;;;0.30;0.30;;;18.50;99.90;;;;;;5034017;28;20041;-77
2022/08/17 00:03:38;;;;;;;0.20;0.20;;;18.40;99.90;;;;;;5048606;28;20110;-80
2022/08/17 00:06:07;;;;;;;0.20;0.20;;;18.40;99.90;;;;;;5051351;28;20148;-78
2022/08/17 00:08:40;;;;;;;0.30;0.30;;;18.30;99.90;;;;;;5062266;28;20040;-79
2022/08/17 00:11:09;;;;;;;0.20;0.20;;;18.30;99.90;;;;;;5060360;28;20402;-79
2022/08/17 00:13:43;;;;;;;0.20;0.20;;;18.30;99.90;;;;;;5046403;28;20371;-80
2022/08/17 00:16:30;;;;;;;0.20;0.20;;;18.20;99.90;;;;;;5038340;28;20045;-79
2022/08/17 00:19:00;;;;;;;0.20;0.20;;;18.20;99.90;;;;;;5060868;28;20099;-79
2022/08/17 00:21:27;;;;;;;0.30;0.30;;;18.10;99.90;;;;;;5056699;28;20406;-79
2022/08/17 00:23:53;;;;;;;0.22;0.22;;;18.10;99.90;;;;;;5031263;28;20132;-80
2022/08/17 00:26:20;;;;;;;0.30;0.30;;;18.10;99.90;;;;;;5047979;28;20075;-80
2022/08/17 00:28:46;;;;;;;0.40;0.40;;;18.10;99.90;;;;;;5032154;28;20501;-79
2022/08/17 00:31:12;;;;;;;;;;;18.00;99.90;;;;;;5033739;28;20041;-77
2022/08/17 00:33:39;;;;;;;0.40;0.40;;;18.00;99.90;;;;;;5015620;28;19925;-80
2022/08/17 00:36:13;;;;;;;0.40;0.40;;;17.90;99.90;;;;;;5048414;28;20044;-80
2022/08/17 00:38:39;;;;;;;0.20;0.20;;;17.90;99.90;;;;;;5032471;28;20045;-80
2022/08/17 00:41:13;;;;;;;0.20;0.20;;;17.80;99.90;;;;;;5055705;28;20045;-79
2022/08/17 00:43:45;;;;;;;0.40;0.40;;;17.80;99.90;;;;;;5048703;28;20044;-80
2022/08/17 00:46:18;;;;;;;0.30;0.30;;;17.70;99.90;;;;;;5044251;28;20039;-77
2022/08/17 00:48:44;;;;;;;0.38;0.38;;;17.70;99.90;;;;;;5051099;28;20036;-78
2022/08/17 00:51:15;;;;;;;;;;;17.70;99.90;;;;;;5060832;28;20051;-79
2022/08/17 00:53:48;;;;;;;0.25;0.25;;;17.60;99.90;;;;;;5060198;28;19920;-78
2022/08/17 00:56:21;;;;;;;0.30;0.30;;;17.60;99.90;;;;;;5049777;28;20390;-78
2022/08/17 00:58:49;;;;;;;0.20;0.20;;;17.60;99.90;;;;;;5061275;28;20102;-80
2022/08/17 01:01:15;;;;;;;0.20;0.20;;;17.60;99.90;;;;;;5053128;28;20037;-81
2022/08/17 01:03:42;;;;;;;;;;;17.50;99.90;;;;;;5060817;28;20042;-79
2022/08/17 01:06:08;;;;;;;;;;;17.50;99.90;;;;;;5037889;28;19921;-78
2022/08/17 01:08:37;;;;;;;0.30;0.30;;;17.50;99.90;;;;;;5049002;28;19923;-79
2022/08/17 01:11:04;;;;;;;0.75;0.70;;;17.50;99.90;;;;;;5061956;28;20095;-79
2022/08/17 01:13:41;;;;;;;0.20;0.20;;;17.50;99.90;;;;;;5047168;28;20049;-78
2022/08/17 01:16:27;;;;;;;0.20;0.20;;;17.50;99.90;;;;;;5034285;28;20044;-80
2022/08/17 01:18:57;;;;;;;0.32;0.32;;;17.70;99.90;;;;;;5053913;28;20403;-79
2022/08/17 01:21:47;;;;;;;0.30;0.30;;;17.70;99.90;;;;;;5044618;28;20166;-79
2022/08/17 01:24:13;;;;;;;0.38;0.38;;;17.60;99.90;;;;;;5044727;28;20045;-79
2022/08/17 01:26:41;;;;;;;0.20;0.20;;;17.60;99.90;;;;;;5013355;28;20037;-79
2022/08/17 01:29:07;;;;;;;0.20;0.20;;;17.50;99.90;;;;;;5049023;28;20041;-80
2022/08/17 01:31:47;;;;;;;0.20;0.20;;;17.50;99.90;;;;;;5048688;28;20093;-79
2022/08/17 01:34:15;;;;;;;0.20;0.20;;;17.40;99.90;;;;;;5069642;28;20067;-80
2022/08/17 01:36:45;;;;;;;0.20;0.20;;;17.40;99.90;;;;;;5053334;28;20076;-79
2022/08/17 01:39:26;;;;;;;0.93;0.93;;;17.30;99.90;;;;;;5054771;28;20044;-79
2022/08/17 01:41:57;;;;;;;0.20;0.20;;;17.30;99.90;;;;;;5053939;28;20044;-78
2022/08/17 01:44:25;;;;;;;0.25;0.25;;;17.20;99.90;;;;;;5035507;28;20499;-78
2022/08/17 01:46:51;;;;;;;0.35;0.35;;;17.20;99.90;;;;;;5050902;28;20421;-78
2022/08/17 01:49:18;;;;;;;0.30;0.30;;;17.10;99.90;;;;;;5034428;28;20099;-77
2022/08/17 01:51:44;;;;;;;0.20;0.20;;;17.10;99.90;;;;;;5030771;28;20493;-77
2022/08/17 01:54:11;;;;;;;;;;;17.10;99.90;;;;;;5035513;28;20044;-81
2022/08/17 01:56:38;;;;;;;;;;;17.10;99.90;;;;;;5053303;28;20358;-79
2022/08/17 01:59:05;;;;;;;0.35;0.35;;;17.00;99.90;;;;;;5041545;28;19991;-79
2022/08/17 02:01:32;;;;;;;0.25;0.25;;;17.00;99.90;;;;;;5028483;28;20102;-80
2022/08/17 02:03:58;;;;;;;0.30;0.30;;;17.00;99.90;;;;;;5019759;28;20493;-80
2022/08/17 02:06:24;;;;;;;;;;;16.90;99.90;;;;;;5050699;28;20071;-79
2022/08/17 02:08:49;;;;;;;0.20;0.20;;;17.00;99.90;;;;;;5032439;28;20358;-79
2022/08/17 02:11:16;;;;;;;;;;;17.00;99.90;;;;;;5034919;28;20037;-80
2022/08/17 02:13:45;;;;;;;0.30;0.30;;;17.10;99.90;;;;;;5052680;28;19916;-80
2022/08/17 02:16:11;;;;;;;0.20;0.20;;;17.10;99.90;;;;;;5049027;28;20064;-80
2022/08/17 02:18:39;;;;;;;0.50;0.50;;;17.10;99.90;;;;;;5051090;28;20437;-80
2022/08/17 02:21:06;;;;;;;0.32;0.32;;;17.10;99.90;;;;;;5059835;28;20130;-80
2022/08/17 02:23:36;;;;;;;0.20;0.20;;;17.20;99.90;;;;;;5051015;28;20041;-79
2022/08/17 02:26:02;;;;;;;0.38;0.32;;;17.20;99.90;;;;;;5047809;28;20045;-79
2022/08/17 02:28:28;;;;;;;0.28;0.28;;;17.20;99.90;;;;;;5051320;28;20116;-79
2022/08/17 02:30:54;;;;;;;;;;;17.20;99.90;;;;;;5050511;28;20108;-79
2022/08/17 02:33:20;;;;;;;0.30;0.30;;;17.20;99.90;;;;;;5048877;28;20385;-78
2022/08/17 02:35:48;;;;;;;0.20;0.20;;;17.30;99.90;;;;;;5054682;28;20119;-78
2022/08/17 02:38:13;;;;;;;0.22;0.22;;;17.20;99.90;;;;;;5028362;28;20372;-78
2022/08/17 02:40:39;;;;;;;;;;;17.20;99.90;;;;;;5050375;28;20043;-78
2022/08/17 02:43:08;;;;;;;0.30;0.30;;;17.20;99.90;;;;;;5048647;28;19921;-78
2022/08/17 02:45:34;;;;;;;0.20;0.20;;;17.10;99.90;;;;;;5051179;28;20120;-78
2022/08/17 02:48:01;;;;;;;0.25;0.25;;;17.20;99.90;;;;;;5049545;28;20490;-79
2022/08/17 02:50:27;;;;;;;0.32;0.32;;;17.10;99.90;;;;;;5050687;28;20604;-78
2022/08/17 02:52:52;;;;;;;;;;;17.10;99.90;;;;;;5052539;28;20061;-78
2022/08/17 02:55:28;;;;;;;0.20;0.20;;;17.20;99.90;;;;;;5045615;28;19924;-79
2022/08/17 02:57:57;;;;;;;0.20;0.20;;;17.20;99.90;;;;;;5048740;28;20421;-79
2022/08/17 03:00:28;;;;;;;;;;;17.20;99.90;;;;;;5048756;28;20051;-81
2022/08/17 03:02:55;;;;;;;0.20;0.20;;;17.20;99.90;;;;;;5051124;28;20020;-79
2022/08/17 03:05:25;;;;;;;0.47;0.47;;;17.20;99.90;;;;;;5046319;28;20045;-79
2022/08/17 03:07:51;;;;;;;0.25;0.25;;;17.30;99.90;;;;;;5051928;28;20049;-79
2022/08/17 03:10:18;;;;;;;0.90;0.50;;;17.30;99.90;;;;;;5046758;28;20044;-80
2022/08/17 03:12:45;;;;;;;0.30;0.30;;;17.30;99.90;;;;;;5070219;28;20044;-79
2022/08/17 03:15:17;;;;;;;0.30;0.30;;;17.30;99.90;;;;;;5055423;28;20056;-78
2022/08/17 03:17:43;;;;;;;0.20;0.20;;;17.40;99.90;;;;;;5058637;28;20036;-79
2022/08/17 03:20:09;;;;;;;;;;;17.40;99.90;;;;;;5055174;28;20059;-80
2022/08/17 03:22:42;;;;;;;0.22;0.22;;;17.50;99.90;;;;;;5052499;28;20007;-79
2022/08/17 03:25:11;;;;;;;0.30;0.30;;;17.50;99.90;;;;;;5016933;28;20049;-79
2022/08/17 03:27:37;;;;;;;0.20;0.20;;;17.50;99.90;;;;;;5040992;28;20411;-79
2022/08/17 03:30:05;;;;;;;0.20;0.20;;;17.40;99.90;;;;;;5057421;28;20047;-79
2022/08/17 03:32:39;;;;;;;0.30;0.30;;;17.50;99.90;;;;;;5056978;28;20281;-79
2022/08/17 03:35:05;;;;;;;0.20;0.20;;;17.50;99.90;;;;;;5056878;28;20070;-79
2022/08/17 03:37:31;;;;;;;0.57;0.57;;;17.50;99.90;;;;;;5048586;28;20052;-78
2022/08/17 03:39:57;;;;;;;;;;;17.50;99.90;;;;;;5050487;28;20407;-80
2022/08/17 03:42:25;;;;;;;0.25;0.25;;;17.50;99.90;;;;;;5043222;28;20354;-79
2022/08/17 03:44:53;;;;;;;0.30;0.30;;;17.40;99.90;;;;;;5049811;28;20049;-80
2022/08/17 03:58:19;;;;;;;0.25;0.25;;;17.40;99.90;;;;;;5037736;28;20056;-79
2022/08/17 04:00:45;;;;;;;;;;;17.50;99.90;;;;;;5049333;28;20036;-80
2022/08/17 04:03:14;;;;;;;0.30;0.30;;;17.40;99.90;;;;;;5061441;28;20019;-80
2022/08/17 04:05:40;;;;;;;0.25;0.25;;;17.40;99.90;;;;;;5032969;28;20029;-80
2022/08/17 04:08:06;;;;;;;0.20;0.20;;;17.40;99.90;;;;;;5057487;28;20051;-81
2022/08/17 04:10:32;;;;;;;;;;;17.40;99.90;;;;;;5052023;28;20041;-80
2022/08/17 04:12:58;;;;;;;0.45;0.40;;;17.40;99.90;;;;;;5050351;28;20334;-80
2022/08/17 04:15:24;;;;;;;;;;;17.40;99.90;;;;;;5047547;28;20511;-79
2022/08/17 04:17:51;;;;;;;0.30;0.30;;;17.30;99.90;;;;;;5058609;28;20000;-81
2022/08/17 04:20:18;;;;;;;0.30;0.30;;;17.30;99.90;;;;;;5053446;28;20425;-81
2022/08/17 04:23:08;;;;;;;0.10;0.10;;;17.30;99.90;;;;;;5048023;28;20081;-82
2022/08/17 04:25:36;;;;;;;0.20;0.20;;;17.30;99.90;;;;;;5032336;28;20041;-82
2022/08/17 04:28:05;;;;;;;0.20;0.20;;;17.30;99.90;;;;;;5016013;28;20044;-81
2022/08/17 04:30:33;;;;;;;0.10;0.10;;;17.30;99.90;;;;;;5042812;28;20107;-80
2022/08/17 04:33:16;;;;;;;0.40;0.40;;;17.30;99.90;;;;;;5044808;28;20567;-81
2022/08/17 04:35:50;;;;;;;0.10;0.10;;;17.30;99.90;;;;;;5030851;28;20057;-80
2022/08/17 04:38:20;;;;;;;0.30;0.30;;;17.40;99.90;;;;;;5047847;28;20055;-76
2022/08/17 04:43:33;;;;;;;0.25;0.25;;;17.40;99.90;;;;;;5041013;28;20549;-80
2022/08/17 04:46:05;;;;;;;0.20;0.20;;;17.40;99.90;;;;;;5029334;28;20087;-80
2022/08/17 04:48:34;;;;;;;0.20;0.20;;;17.40;99.90;;;;;;5032801;28;20041;-80
2022/08/17 04:51:00;;;;;;;0.40;0.40;;;17.40;99.90;;;;;;5038364;28;20045;-78
2022/08/17 04:53:26;;;;;;;;;;;17.50;99.90;;;;;;5036293;28;20114;-81
2022/08/17 04:55:54;;;;;;;0.20;0.20;;;17.50;99.90;;;;;;5037135;28;20294;-82
2022/08/17 04:58:19;;;;;;;0.20;0.20;;;17.60;99.90;;;;;;5052037;28;20052;-82
2022/08/17 05:00:45;;;;;;;;;;;17.60;99.90;;;;;;5048501;28;20540;-80
2022/08/17 05:03:11;;;;;;;0.28;0.28;;;17.70;99.90;;;;;;5030205;28;19933;-80
2022/08/17 05:05:37;;;;;;;;;;;17.70;99.90;;;;;;5044078;28;20156;-78
2022/08/17 05:08:06;;;;;;;0.22;0.22;;;17.80;99.90;;;;;;5045100;28;19924;-82
2022/08/17 05:10:36;;;;;;;0.50;0.50;;;17.80;99.90;;;;;;5029765;28;20452;-78
2022/08/17 05:13:07;;;;;;;0.20;0.20;;;17.90;99.90;;;;;;5049580;28;20049;-80
2022/08/17 05:15:35;;;;;;;0.22;0.22;;;17.90;99.90;;;;;;5052564;28;20116;-80
2022/08/17 05:18:01;;;;;;;0.30;0.30;;;18.00;99.90;;;;;;5032490;28;20049;-80
2022/08/17 05:20:28;;;;;;;;;;;18.10;99.90;;;;;;5033964;28;20039;-79
2022/08/17 05:22:56;;;;;;;0.30;0.30;;;18.10;99.90;;;;;;5034258;28;20015;-81
2022/08/17 05:25:28;;;;;;;0.28;0.28;;;18.20;99.90;;;;;;5070611;28;20041;-81
2022/08/17 05:27:55;;;;;;;0.30;0.30;;;18.20;99.90;;;;;;5058178;28;20052;-80
2022/08/17 05:30:22;;;;;;;0.30;0.30;;;18.30;99.90;;;;;;5061942;28;20048;-80
2022/08/17 05:32:55;;;;;;;0.30;0.30;;;18.30;99.90;;;;;;5070319;28;20045;-81
2022/08/17 05:35:22;;;;;;;0.25;0.25;;;18.30;99.90;;;;;;5054949;28;20048;-82
2022/08/17 05:37:48;;;;;;;0.30;0.30;;;18.40;99.90;;;;;;5041098;28;20049;-80
2022/08/17 05:40:16;;;;;;;0.30;0.30;;;18.40;99.90;;;;;;5051341;28;20448;-77
2022/08/17 05:42:42;;;;;;;0.20;0.20;;;18.40;99.90;;;;;;5018301;28;20041;-82
2022/08/17 05:45:08;;;;;;;0.20;0.20;;;18.50;99.90;;;;;;5050190;28;20060;-79
2022/08/17 05:47:37;;;;;;;0.20;0.20;;;18.50;99.90;;;;;;5066255;28;20037;-81
2022/08/17 05:50:04;;;;;;;0.30;0.30;;;18.50;99.90;;;;;;5065751;28;20063;-78
2022/08/17 05:52:52;;;;;;;0.20;0.20;;;18.50;99.90;;;;;;5064280;28;20120;-80
2022/08/17 05:55:39;;;;;;;0.30;0.30;;;18.50;99.90;;;;;;5051340;28;20440;-80
2022/08/17 05:58:13;;;;;;;0.17;0.17;;;18.50;99.90;;;;;;5053363;28;20049;-80
2022/08/17 06:00:54;;;;;;;0.20;0.20;;;18.50;99.90;;;;;;5056699;28;20143;-80
2022/08/17 06:03:32;;;;;;;0.30;0.30;;;18.50;99.90;;;;;;5048490;28;20053;-80
2022/08/17 06:06:24;;;;;;;0.10;0.10;;;18.60;99.90;;;;;;5051870;28;20057;-80
2022/08/17 06:09:24;;;;;;;0.30;0.30;;;18.60;99.90;;;;;;5035125;28;20043;-81
2022/08/17 06:12:22;;;;;;;0.50;0.40;;;18.70;99.90;;;;;;5047197;28;20644;-80
2022/08/17 06:15:22;;;;;;;0.20;0.20;;;18.70;99.90;;;;;;5042237;28;20044;-79
2022/08/17 06:17:55;;;;;;;0.20;0.20;;;18.70;99.90;;;;;;5057619;28;20036;-79
2022/08/17 06:20:22;;;;;;;0.65;0.65;;;18.70;99.90;;;;;;5056725;28;20080;-80
2022/08/17 06:23:02;;;;;;;0.55;0.55;;;18.70;99.90;;;;;;5052616;28;20044;-81
2022/08/17 06:25:51;;;;;;;0.20;0.20;;;18.80;99.90;;;;;;5050546;28;20036;-81
2022/08/17 06:28:26;;;;;;;0.20;0.20;;;18.80;99.90;;;;;;5050323;28;20036;-81
2022/08/17 06:30:56;;;;;;;0.30;0.30;;;18.80;99.90;;;;;;5054247;28;20101;-82
2022/08/17 06:33:31;;;;;;;0.45;0.45;;;18.80;99.90;;;;;;5063263;28;20048;-80
2022/08/17 06:36:28;;;;;;;0.22;0.22;;;18.80;99.90;;;;;;5005251;28;20118;-81
2022/08/17 06:39:17;;;;;;;0.20;0.20;;;18.80;99.90;;;;;;5006519;28;20053;-82
2022/08/17 06:41:52;;;;;;;0.63;0.60;;;18.80;99.90;;;;;;5049202;28;20048;-81
2022/08/17 06:44:26;;;;;;;0.57;0.40;;;18.80;99.90;;;;;;5050789;28;20048;-82
2022/08/17 06:47:02;;;;;;;0.47;0.47;;;18.80;99.90;;;;;;5050786;28;20430;-82
2022/08/17 06:49:39;;;;;;;0.43;0.43;;;18.90;99.90;;;;;;5055659;28;20098;-80
2022/08/17 06:52:26;;;;;;;0.22;0.22;;;18.90;99.90;;;;;;5035723;28;20045;-81
2022/08/17 06:55:25;;;;;;;0.77;0.65;;;19.00;99.90;;;;;;5050973;28;20149;-82
2022/08/17 06:57:57;;;;;;;0.50;0.50;;;19.00;99.90;;;;;;5032143;28;20131;-81
2022/08/17 07:00:32;;;;;;;0.30;0.30;;;19.00;99.90;;;;;;5050956;28;20051;-80
2022/08/17 07:03:12;;;;;;;0.20;0.20;;;19.00;99.90;;;;;;5051765;28;20059;-82
2022/08/17 07:05:45;;;;;;;0.20;0.20;;;19.00;99.90;;;;;;5050872;28;20071;-84
2022/08/17 07:08:39;;;;;;;0.88;0.55;;;19.00;99.90;;;;;;5054783;28;20041;-78
2022/08/17 07:12:00;;;;;;;0.68;0.47;;;19.00;99.90;;;;;;5050487;28;20123;-80
2022/08/17 07:14:50;;;;;;;0.60;0.60;;;19.10;99.90;;;;;;4951292;28;20484;-75
2022/08/17 07:17:17;;;;;;;0.93;0.80;;;19.10;99.90;;;;;;5048938;28;20051;-74
2022/08/17 07:19:46;;;;;;;0.85;0.85;;;19.10;99.90;;;;;;5032345;28;20037;-80
2022/08/17 07:22:33;;;;;;;0.57;0.57;;;19.20;99.90;;;;;;5050601;28;20398;-74
2022/08/17 07:25:03;;;;;;;1.38;0.90;;;19.30;99.90;;;;;;5042835;28;20048;-75
2022/08/17 07:27:38;;;;;;;0.52;0.52;;;19.40;99.90;;;;;;5049173;28;20033;-77
2022/08/17 07:30:24;;;;;;;0.95;0.85;;;19.50;99.90;;;;;;5033575;28;20486;-77
2022/08/17 07:33:08;;;;;;;1.48;1.35;;;19.70;99.90;;;;;;5047890;28;20524;-75
2022/08/17 07:35:40;;;;;;;1.33;1.23;;;19.80;99.90;;;;;;5064825;28;20100;-74
2022/08/17 07:38:14;;;;;;;1.35;0.80;;;19.90;99.90;;;;;;5044170;28;20069;-77
2022/08/17 07:40:44;;;;;;;0.60;0.60;;;20.00;99.90;;;;;;5050857;28;20390;-76
2022/08/17 07:43:20;;;;;;;0.50;0.50;;;20.00;99.90;;;;;;5048996;28;20120;-77
2022/08/17 07:48:40;;;;;;;0.68;0.68;;;20.10;99.90;;;;;;5051233;28;20041;-77
2022/08/17 07:51:23;;;;;;;0.68;0.68;;;20.10;99.90;;;;;;5055084;28;20059;-76
2022/08/17 07:53:48;;;;;;;1.27;1.25;;;20.10;99.90;;;;;;5054214;28;20262;-78
2022/08/17 07:56:36;;;;;;;0.85;0.85;;;20.10;99.90;;;;;;5048064;28;20443;-77
2022/08/17 07:59:33;;;;;;;0.82;0.82;;;20.10;99.90;;;;;;5036309;28;20505;-75
2022/08/17 08:02:02;;;;;;;2.33;1.90;;;20.20;99.90;;;;;;5036621;28;20053;-75
2022/08/17 08:05:01;;;;;;;0.98;0.98;;;20.20;99.90;;;;;;5055775;28;20048;-78
2022/08/17 08:07:34;;;;;;;1.98;1.77;;;20.40;99.90;;;;;;5051735;28;20076;-77
2022/08/17 08:10:03;;;;;;;0.30;0.30;;;20.50;99.90;;;;;;5053501;28;20044;-76
2022/08/17 08:12:34;;;;;;;2.03;1.85;;;20.70;99.90;;;;;;5051798;28;20497;-78
2022/08/17 08:15:22;;;;;;;0.50;0.50;;;20.90;99.90;;;;;;5055967;28;20048;-77
2022/08/17 08:17:58;;;;;;;2.50;1.58;;;21.20;99.90;;;;;;5050254;28;20449;-77
2022/08/17 08:20:48;;;;;;;0.98;0.88;;;21.30;99.90;;;;;;5052585;28;20041;-80
2022/08/17 08:23:32;;;;;;;1.25;1.05;;;21.40;99.90;;;;;;5053207;28;20060;-78
2022/08/17 08:26:22;;;;;;;1.52;1.33;;;21.70;99.90;;;;;;5053084;28;20494;-77
2022/08/17 08:29:14;;;;;;;2.00;1.83;;;21.80;99.90;;;;;;5051466;28;20114;-76
2022/08/17 08:31:42;;;;;;;2.13;1.33;;;21.80;99.90;;;;;;5027549;28;20057;-78
2022/08/17 08:34:25;;;;;;;1.67;1.17;;;21.80;99.90;;;;;;5054639;28;20053;-76
2022/08/17 08:37:26;;;;;;;1.20;1.10;;;21.90;99.90;;;;;;5050295;28;20548;-75
2022/08/17 08:40:07;;;;;;;0.93;0.82;;;22.00;99.90;;;;;;5015884;28;20060;-78
2022/08/17 08:42:47;;;;;;;0.68;0.68;;;22.10;99.90;;;;;;5052896;28;20079;-75
2022/08/17 08:45:32;;;;;;;1.02;1.02;;;22.40;99.90;;;;;;5041404;28;20137;-77
2022/08/17 08:48:15;;;;;;;1.08;0.88;;;22.50;99.90;;;;;;5052442;28;20495;-76
2022/08/17 08:50:48;;;;;;;0.77;0.77;;;22.50;99.90;;;;;;5062072;28;20803;-76
2022/08/17 08:53:55;;;;;;;0.65;0.65;;;22.60;99.90;;;;;;5064888;28;20045;-74
2022/08/17 08:56:56;;;;;;;1.20;1.03;;;22.60;99.90;;;;;;5002607;28;20102;-75
2022/08/17 08:59:52;;;;;;;0.82;0.82;;;22.60;99.90;;;;;;5027362;28;20049;-77
2022/08/17 09:02:39;;;;;;;1.27;0.57;;;22.70;99.90;;;;;;5034900;28;20136;-76
2022/08/17 09:05:38;;;;;;;0.30;0.30;;;22.70;99.90;;;;;;5044522;28;20502;-77
2022/08/17 09:08:09;;;;;;;0.40;0.40;;;22.70;99.90;;;;;;5052340;28;20041;-76
2022/08/17 09:10:55;;;;;;;0.40;0.40;;;22.60;99.90;;;;;;5050087;28;20048;-77
2022/08/17 09:13:35;;;;;;;1.45;1.20;;;22.60;99.90;;;;;;5055933;28;20502;-78
2022/08/17 09:16:15;;;;;;;0.75;0.75;;;22.50;99.90;;;;;;5052010;28;20059;-76
2022/08/17 09:18:51;;;;;;;1.42;1.15;;;22.40;99.90;;;;;;5035390;28;20095;-75
2022/08/17 09:21:27;;;;;;;0.40;0.40;;;22.40;99.90;;;;;;5058532;28;20119;-75
2022/08/17 09:24:25;;;;;;;0.50;0.50;;;22.40;99.90;;;;;;5049176;28;20059;-78
2022/08/17 09:27:03;;;;;;;0.55;0.52;;;22.40;99.90;;;;;;5018291;28;20063;-77
2022/08/17 09:29:35;;;;;;;1.10;0.98;;;22.40;99.90;;;;;;5053079;28;20076;-75
2022/08/17 09:32:10;;;;;;;1.58;1.48;;;22.40;99.90;;;;;;5054284;28;20075;-75
2022/08/17 09:34:48;;;;;;;2.80;1.55;;;22.50;99.90;;;;;;5059570;28;20062;-75
2022/08/17 09:37:32;;;;;;;2.55;1.20;;;22.80;99.90;;;;;;5026188;28;20048;-76
2022/08/17 09:40:17;;;;;;;0.63;0.63;;;;;;;;;;5053719;28;20041;-76
2022/08/17 09:42:54;;;;;;;1.35;1.25;;;23.20;99.90;;;;;;5050049;28;20047;-75
2022/08/17 09:46:06;;;;;;;0.63;0.43;;;23.90;99.90;;;;;;5051979;28;20043;-76
2022/08/17 09:48:42;;;;;;;1.95;1.40;;;;;;;;;;5024891;28;20053;-75
2022/08/17 09:51:20;;;;;;;0.98;0.90;;;24.00;99.90;;;;;;5050659;28;20053;-77
2022/08/17 09:53:46;;;;;;;0.93;0.93;;;23.70;99.90;;;;;;5055804;28;20049;-75
2022/08/17 09:56:15;;;;;;;0.50;0.50;;;23.60;99.90;;;;;;5034316;28;20063;-74
2022/08/17 09:58:50;;;;;;;0.50;0.50;;;23.50;99.90;;;;;;5048127;28;20491;-75
2022/08/17 10:01:38;;;;;;;0.95;0.75;;;23.30;99.90;;;;;;5034503;28;20395;-74
2022/08/17 10:04:26;;;;;;;1.27;1.05;;;23.30;99.90;;;;;;5045764;28;20056;-76
2022/08/17 10:07:30;;;;;;;1.17;1.10;;;23.40;99.90;;;;;;5051392;28;20482;-76
2022/08/17 10:10:00;;;;;;;0.77;0.77;;;23.50;99.90;;;;;;5037737;28;20056;-77
2022/08/17 10:12:39;;;;;;;1.52;1.42;;;22.90;99.90;;;;;;5055144;28;20094;-76
2022/08/17 10:15:08;;;;;;;1.15;1.00;;;23.30;99.90;;;;;;5043701;28;20422;-73
2022/08/17 10:17:52;;;;;;;0.73;0.73;;;22.80;99.90;;;;;;5050609;28;20048;-75
2022/08/17 10:20:33;;;;;;;1.33;0.88;;;22.70;99.90;;;;;;5055357;28;20044;-77
2022/08/17 10:26:12;;;;;;;0.57;0.57;;;22.70;99.90;;;;;;5055094;28;20105;-76
2022/08/17 10:29:01;;;;;;;1.40;1.33;;;22.40;99.90;;;;;;5056657;28;20429;-74
2022/08/17 10:31:37;;;;;;;0.70;0.70;;;22.40;99.90;;;;;;5058181;28;20052;-76
2022/08/17 10:34:26;;;;;;;1.17;1.00;;;22.30;99.90;;;;;;5060148;28;20057;-75
2022/08/17 10:37:07;;;;;;;3.05;1.27;;;22.60;99.90;;;;;;5025113;28;20457;-75
2022/08/17 10:39:50;;;;;;;1.42;1.17;;;22.70;99.90;;;;;;5050647;28;20053;-78
2022/08/17 10:42:28;;;;;;;0.57;0.57;;;22.90;99.90;;;;;;5038376;28;20048;-77
2022/08/17 10:45:16;;;;;;;0.47;0.47;;;23.00;99.90;;;;;;5053474;28;20491;-77
2022/08/17 10:47:58;;;;;;;1.17;1.17;;;22.70;99.90;;;;;;5049698;28;20048;-77
2022/08/17 10:50:58;;;;;;;2.75;1.40;;;23.10;99.90;;;;;;5058769;28;20098;-75
2022/08/17 10:53:30;;;;;;;0.30;0.30;;;23.20;99.90;;;;;;5037542;28;20040;-76
2022/08/17 10:56:11;;;;;;;0.82;0.82;;;23.70;99.90;;;;;;5049014;28;20049;-75
2022/08/17 10:58:54;;;;;;;2.50;1.73;;;23.40;99.90;;;;;;5052485;28;20446;-76
2022/08/17 11:01:36;;;;;;;1.00;1.00;;;23.50;99.90;;;;;;5048884;28;20067;-77
2022/08/17 11:04:17;;;;;;;1.02;0.82;;;23.40;99.90;;;;;;5052050;28;20521;-76
2022/08/17 11:07:16;;;;;;;0.73;0.73;;;23.50;99.90;;;;;;5061200;28;20036;-75
2022/08/17 11:10:03;;;;;;;0.22;0.22;;;23.90;99.90;;;;;;5038269;28;20041;-76
2022/08/17 11:12:50;;;;;;;0.70;0.70;;;23.50;99.90;;;;;;5062985;28;20049;-76
2022/08/17 11:15:22;;;;;;;2.22;0.45;;;23.50;99.90;;;;;;5049085;28;20438;-76
2022/08/17 11:18:00;;;;;;;0.82;0.82;;;24.00;99.90;;;;;;5049013;28;20071;-74
2022/08/17 11:21:05;;;;;;;0.82;0.80;;;24.10;99.90;;;;;;5049509;28;20041;-77
2022/08/17 11:24:08;;;;;;;1.05;1.05;;;24.20;99.90;;;;;;5034596;28;20136;-76
2022/08/17 11:26:37;;;;;;;4.15;0.38;;;24.10;99.90;;;;;;5044562;28;20045;-75
2022/08/17 11:29:08;;;;;;;0.65;0.65;;;24.00;99.90;;;;;;5063415;28;20124;-75
2022/08/17 11:31:34;;;;;;;0.80;0.80;;;;;;;;;;5046592;28;20049;-76
2022/08/17 11:34:30;;;;;;;1.58;1.48;;;24.60;99.90;;;;;;5051887;28;20106;-75
2022/08/17 11:36:57;;;;;;;0.30;0.30;;;;;;;;;;5031050;28;20129;-74
2022/08/17 11:39:34;;;;;;;1.20;1.10;;;24.80;99.90;;;;;;5049554;28;20449;-74
2022/08/17 11:42:36;;;;;;;0.40;0.40;;;24.80;99.90;;;;;;5047456;28;20499;-75
2022/08/17 11:45:26;;;;;;;1.05;0.95;;;25.00;99.90;;;;;;5053388;28;20107;-75
2022/08/17 11:53:58;;;;;;;1.02;0.88;;;24.40;99.90;;;;;;5037976;28;20475;-74
2022/08/17 11:56:39;;;;;;;1.02;1.02;;;24.60;99.90;;;;;;5045737;28;20037;-75
2022/08/17 11:59:44;;;;;;;1.08;0.98;;;24.70;99.90;;;;;;5037700;28;20042;-75
2022/08/17 12:02:31;;;;;;;18.95;2.15;;;24.50;99.90;;;;;;4961516;28;20053;-75
2022/08/17 12:05:26;;;;;;;1.23;1.10;;;24.40;99.90;;;;;;4969950;28;20074;-75
2022/08/17 12:08:09;;;;;;;0.70;0.70;;;24.20;99.90;;;;;;5008033;28;20072;-75
2022/08/17 12:10:49;;;;;;;0.60;0.45;;;24.10;99.90;;;;;;5045927;28;20430;-77
2022/08/17 12:13:16;;;;;;;0.82;0.82;;;24.20;99.90;;;;;;5050330;28;20178;-74
2022/08/17 12:15:48;;;;;;;0.70;0.70;;;24.40;99.90;;;;;;5032291;28;20132;-76
2022/08/17 12:18:23;;;;;;;1.17;1.08;;;24.40;99.90;;;;;;5050264;28;20522;-74
2022/08/17 12:21:10;;;;;;;0.43;0.30;;;24.60;99.90;;;;;;5033306;28;20374;-74
2022/08/17 12:23:58;;;;;;;1.70;0.98;;;24.40;99.90;;;;;;5049313;28;20045;-74
2022/08/17 12:26:32;;;;;;;0.85;0.85;;;24.40;99.90;;;;;;5050287;28;20097;-75
2022/08/17 12:29:01;;;;;;;0.65;0.60;;;24.30;99.90;;;;;;5047660;28;20449;-74
2022/08/17 12:31:42;;;;;;;0.60;0.40;;;24.40;99.90;;;;;;5048089;28;20083;-76
2022/08/17 12:34:17;;;;;;;0.88;0.77;;;24.80;99.90;;;;;;5039829;28;20061;-76
2022/08/17 12:36:45;;;;;;;0.90;0.82;;;24.80;99.90;;;;;;5040898;28;20053;-75
2022/08/17 12:39:16;;;;;;;0.65;0.63;;;24.50;99.90;;;;;;5049457;28;20487;-76
2022/08/17 12:41:45;;;;;;;1.67;1.10;;;24.80;99.90;;;;;;5047030;28;20045;-75
2022/08/17 12:44:17;;;;;;;2.10;1.27;;;24.60;99.90;;;;;;5048997;28;20617;-74
2022/08/17 12:47:00;;;;;;;0.98;0.90;;;24.50;99.90;;;;;;5032508;28;20080;-74
2022/08/17 12:49:31;;;;;;;0.98;0.93;;;24.40;99.90;;;;;;5049822;28;20044;-74
2022/08/17 12:52:18;;;;;;;1.55;1.45;;;24.60;99.90;;;;;;5045617;28;20052;-74
2022/08/17 12:55:05;;;;;;;1.08;1.08;;;24.80;99.90;;;;;;5049226;28;20045;-75
2022/08/17 12:57:50;;;;;;;1.45;1.35;;;24.70;99.90;;;;;;5048356;28;20045;-75
2022/08/17 13:00:36;;;;;;;1.08;0.98;;;24.60;99.90;;;;;;5048895;28;20051;-74
2022/08/17 13:03:08;;;;;;;;;;;24.50;99.90;;;;;;5052393;28;20123;-75
2022/08/17 13:06:05;;;;;;;0.75;0.75;;;24.40;99.90;;;;;;5044078;28;19927;-76
2022/08/17 13:08:34;;;;;;;0.60;0.30;;;24.40;99.90;;;;;;5048647;28;20044;-74
2022/08/17 13:11:08;;;;;;;0.57;0.52;;;24.50;99.90;;;;;;5048143;28;20401;-73
2022/08/17 13:13:40;;;;;;;0.50;0.50;;;24.30;99.90;;;;;;5031864;28;20056;-75
2022/08/17 13:16:16;;;;;;;0.47;0.47;;;24.60;99.90;;;;;;5048212;28;20080;-74
2022/08/17 13:18:48;;;;;;;1.52;1.13;;;24.50;99.90;;;;;;5054017;28;20197;-75
2022/08/17 13:21:29;;;;;;;1.15;0.50;;;24.30;99.90;;;;;;5046238;28;20057;-76
2022/08/17 13:23:55;;;;;;;0.35;0.35;;;24.40;99.90;;;;;;5047236;28;20745;-76
2022/08/17 13:26:42;;;;;;;1.30;0.85;;;24.70;99.90;;;;;;5049756;28;20047;-74
2022/08/17 13:29:20;;;;;;;0.93;0.93;;;24.60;99.90;;;;;;5053747;28;20040;-74
2022/08/17 13:31:48;;;;;;;0.38;0.38;;;24.50;99.90;;;;;;5046874;28;20596;-75
2022/08/17 13:34:28;;;;;;;1.42;1.05;;;24.50;99.90;;;;;;5054714;28;20114;-74
2022/08/17 13:40:11;;;;;;;1.30;0.50;;;24.20;99.90;;;;;;5054963;28;20057;-73
2022/08/17 13:42:50;;;;;;;0.50;0.50;;;24.20;99.90;;;;;;5047931;28;20083;-75
2022/08/17 13:45:35;;;;;;;0.60;0.55;;;24.40;99.90;;;;;;5049053;28;20533;-75
2022/08/17 13:48:16;;;;;;;1.35;0.95;;;24.80;99.90;;;;;;5043928;28;20212;-74
2022/08/17 13:50:53;;;;;;;1.52;1.27;;;24.80;99.90;;;;;;5051375;28;20063;-76
2022/08/17 13:53:24;;;;;;;1.15;1.08;;;24.20;99.90;;;;;;5047418;28;20041;-73
2022/08/17 13:55:56;;;;;;;0.90;0.65;;;24.40;99.90;;;;;;5048177;28;20061;-74
2022/08/17 13:58:29;;;;;;;0.68;0.63;;;23.90;99.90;;;;;;5040796;28;20402;-74
2022/08/17 14:00:55;;;;;;;0.40;0.40;;;24.20;99.90;;;;;;5046964;28;20729;-77
2022/08/17 14:03:22;;;;;;;1.20;1.10;;;24.30;99.90;;;;;;5027826;28;20045;-74
2022/08/17 14:05:49;;;;;;;0.35;0.35;;;24.40;99.90;;;;;;5047754;28;20487;-73